TAN weather

Taunton Municipal King Field
Taunton, Massachusetts, United States

Public forecast

Using degrees Fahrenheit for public forecast. Weather courtesy of forecast.io.

METAR (pilot weather report)

Retrieved 2019/09/22 10:29 UTC (25 minutes ago):

KTAN 221029Z AUTO 00000KT 3SM BR FEW001 10/09 A3015 RMK AO2 T01000089

TAF (pilot weather forecast)

Closest forecast is Theodore Francis Green State Airport, 20.0 nm (37.0 km) WSW. Retrieved 2019/09/22 06:33 UTC (4 hours ago):

TAF KPVD 220530Z 2206/2306 21003KT P6SM SKC FM220700 21004KT P6SM SCT003 FM221400 21006KT P6SM FEW250